Time;durP1;ratioP1;P1;durP2;ratioP2;P2;SDS_P1;SDS_P2;PMS_P1;PMS_P2;Temp;Humidity;BMP_temperature;BMP_pressure;BME280_temperature;BME280_humidity;BME280_pressure;Samples;Min_cycle;Max_cycle;Signal;HPM_P1;HPM_P2
2022/09/12 00:01:24;;;;;;;4.37;4.17;;;24.30;44.20;;;;;;6207420;23;20524;-61
2022/09/12 00:03:58;;;;;;;5.23;4.93;;;24.30;44.20;;;;;;6207655;23;20210;-62
2022/09/12 00:06:27;;;;;;;5.07;4.77;;;24.30;44.20;;;;;;6200577;23;20428;-60
2022/09/12 00:09:02;;;;;;;4.50;4.30;;;24.30;44.30;;;;;;6202168;23;20915;-60
2022/09/12 00:11:27;;;;;;;5.33;4.93;;;24.30;44.30;;;;;;6191242;23;20947;-60
2022/09/12 00:14:00;;;;;;;5.40;5.10;;;24.30;44.30;;;;;;6177039;23;20423;-61
2022/09/12 00:16:27;;;;;;;5.43;5.13;;;24.30;44.30;;;;;;6177151;23;20206;-60
2022/09/12 00:18:53;;;;;;;5.20;4.90;;;24.30;44.30;;;;;;6177351;23;20503;-63
2022/09/12 00:21:19;;;;;;;4.80;4.50;;;24.30;44.30;;;;;;6203895;23;20455;-64
2022/09/12 00:23:45;;;;;;;4.93;4.67;;;24.30;44.30;;;;;;6208327;23;20252;-60
2022/09/12 00:26:11;;;;;;;4.97;4.67;;;24.30;44.30;;;;;;6206695;23;20420;-61
2022/09/12 00:28:38;;;;;;;5.20;4.90;;;24.30;44.30;;;;;;6206277;23;20613;-63
2022/09/12 00:31:05;;;;;;;6.53;5.30;;;24.30;44.30;;;;;;6206437;23;20200;-60
2022/09/12 00:33:31;;;;;;;5.60;5.30;;;24.30;44.30;;;;;;6206695;23;20447;-60
2022/09/12 00:35:56;;;;;;;5.10;4.80;;;24.30;44.30;;;;;;6206486;23;20774;-60
2022/09/12 00:38:22;;;;;;;5.37;5.07;;;24.30;44.30;;;;;;6208448;23;20194;-60
2022/09/12 00:40:48;;;;;;;4.57;4.37;;;24.30;44.30;;;;;;6208101;23;20190;-60
2022/09/12 00:43:38;;;;;;;5.20;4.90;;;24.30;44.30;;;;;;6207751;23;20590;-61
2022/09/12 00:46:18;;;;;;;5.33;5.03;;;24.30;44.30;;;;;;6176099;23;20669;-61
2022/09/12 00:48:49;;;;;;;5.87;5.47;;;24.30;44.30;;;;;;6177779;23;20876;-62
2022/09/12 00:51:16;;;;;;;5.53;5.13;;;24.30;44.30;;;;;;6205339;23;20416;-60
2022/09/12 00:53:45;;;;;;;5.57;5.27;;;24.30;44.30;;;;;;6207681;23;20416;-60
2022/09/12 00:56:12;;;;;;;5.10;4.80;;;24.30;44.30;;;;;;6207040;23;20411;-62
2022/09/12 00:58:51;;;;;;;5.63;5.33;;;24.30;44.30;;;;;;6206237;23;20498;-60
2022/09/12 01:01:17;;;;;;;5.40;5.00;;;24.30;44.30;;;;;;6206891;23;20445;-61
2022/09/12 01:03:43;;;;;;;5.27;4.97;;;24.30;44.30;;;;;;6206355;23;20839;-60
2022/09/12 01:06:20;;;;;;;5.43;5.10;;;24.30;44.30;;;;;;6205610;23;20498;-61
2022/09/12 01:08:47;;;;;;;5.77;5.43;;;24.30;44.30;;;;;;6187241;23;20866;-61
2022/09/12 01:11:14;;;;;;;5.40;5.10;;;24.30;44.40;;;;;;6165971;23;20439;-60
2022/09/12 01:13:40;;;;;;;5.60;5.30;;;24.30;44.40;;;;;;6176558;23;20419;-61
2022/09/12 01:16:07;;;;;;;5.07;4.77;;;24.30;44.30;;;;;;6176279;23;20447;-60
2022/09/12 01:18:44;;;;;;;5.73;5.43;;;24.30;44.40;;;;;;6175274;23;20214;-60
2022/09/12 01:21:10;;;;;;;5.87;5.47;;;24.30;44.30;;;;;;6186821;23;20423;-60
2022/09/12 01:23:49;;;;;;;5.97;5.57;;;24.30;44.30;;;;;;6206120;23;20515;-61
2022/09/12 01:26:43;;;;;;;5.57;5.27;;;24.30;44.40;;;;;;6206082;23;20197;-62
2022/09/12 01:29:20;;;;;;;5.63;5.23;;;24.30;44.40;;;;;;6173183;23;20470;-61
2022/09/12 01:32:11;;;;;;;5.83;5.43;;;24.30;44.40;;;;;;6197961;23;20449;-60
2022/09/12 01:35:15;;;;;;;5.43;5.03;;;24.30;44.30;;;;;;6188679;23;20416;-60
2022/09/12 01:37:53;;;;;;;5.63;5.33;;;24.30;44.40;;;;;;6204111;23;20403;-60
2022/09/12 01:40:30;;;;;;;5.80;5.40;;;24.30;44.30;;;;;;6205091;23;20427;-60
2022/09/12 01:43:17;;;;;;;6.40;5.90;;;24.30;44.50;;;;;;6206089;23;20442;-60
2022/09/12 01:45:53;;;;;;;6.17;5.80;;;24.30;44.40;;;;;;6205249;23;20419;-60
2022/09/12 01:48:23;;;;;;;6.13;5.73;;;24.30;44.40;;;;;;6191797;23;20523;-60
2022/09/12 01:51:09;;;;;;;6.07;5.60;;;24.30;44.40;;;;;;6208039;23;20412;-60
2022/09/12 01:53:44;;;;;;;5.90;5.50;;;24.30;44.40;;;;;;6206155;23;20419;-60
2022/09/12 01:56:21;;;;;;;5.67;5.20;;;24.30;44.50;;;;;;6205141;23;20415;-61
2022/09/12 01:58:55;;;;;;;6.00;5.60;;;24.30;44.40;;;;;;6206434;23;20417;-61
2022/09/12 02:01:26;;;;;;;5.93;5.63;;;24.30;44.40;;;;;;6198603;23;20412;-61
2022/09/12 02:03:59;;;;;;;5.07;4.77;;;24.30;44.50;;;;;;6185092;23;20428;-60
2022/09/12 02:06:32;;;;;;;5.80;5.50;;;24.30;44.40;;;;;;6182733;23;21154;-60
2022/09/12 02:09:09;;;;;;;5.90;5.50;;;24.30;44.40;;;;;;6202093;23;20444;-62
2022/09/12 02:11:40;;;;;;;5.60;5.20;;;24.30;44.40;;;;;;6203743;23;20422;-61
2022/09/12 02:14:12;;;;;;;5.87;5.50;;;24.30;44.40;;;;;;6203840;23;20416;-61
2022/09/12 02:16:49;;;;;;;5.90;5.50;;;24.30;44.40;;;;;;6205573;23;20918;-60
2022/09/12 02:19:18;;;;;;;6.23;5.83;;;24.30;44.40;;;;;;6174127;23;20934;-62
2022/09/12 02:21:50;;;;;;;5.87;5.47;;;24.30;44.40;;;;;;6194526;23;20423;-62
2022/09/12 02:24:16;;;;;;;7.00;6.57;;;24.30;44.40;;;;;;6176617;23;20434;-61
2022/09/12 02:27:16;;;;;;;5.77;5.37;;;24.30;44.40;;;;;;6176245;23;20739;-63
2022/09/12 02:29:43;;;;;;;6.40;5.93;;;24.30;44.30;;;;;;6175623;22;20416;-62
2022/09/12 02:32:25;;;;;;;6.23;5.83;;;24.30;44.40;;;;;;6175613;23;20436;-64
2022/09/12 02:34:54;;;;;;;6.70;6.20;;;24.30;44.40;;;;;;6174304;23;20791;-61
2022/09/12 02:37:31;;;;;;;5.83;5.40;;;24.30;44.40;;;;;;6174588;23;20472;-61
2022/09/12 02:39:57;;;;;;;5.97;5.37;;;24.30;44.60;;;;;;6199087;23;20721;-61
2022/09/12 02:42:24;;;;;;;5.90;5.40;;;24.30;44.40;;;;;;6206212;23;20412;-60
2022/09/12 02:44:51;;;;;;;6.63;6.23;;;24.30;44.40;;;;;;6205248;23;20428;-61
2022/09/12 02:47:26;;;;;;;6.27;5.87;;;24.30;44.40;;;;;;6204937;23;20403;-60
2022/09/12 02:49:52;;;;;;;6.03;5.63;;;24.30;44.30;;;;;;6206046;23;20427;-61
2022/09/12 02:52:19;;;;;;;7.23;6.63;;;24.30;44.40;;;;;;6206280;23;20414;-65
2022/09/12 02:54:44;;;;;;;7.03;6.53;;;24.30;44.40;;;;;;6204694;23;21249;-61
2022/09/12 02:57:16;;;;;;;6.03;5.70;;;24.30;44.40;;;;;;6206449;23;20431;-60
2022/09/12 02:59:42;;;;;;;5.80;5.40;;;24.30;44.30;;;;;;6206954;23;20193;-60
2022/09/12 03:02:27;;;;;;;6.70;6.23;;;24.30;44.30;;;;;;6201761;23;20419;-61
2022/09/12 03:05:08;;;;;;;6.30;5.90;;;24.30;44.30;;;;;;6206319;23;20431;-60
2022/09/12 03:07:45;;;;;;;6.40;5.83;;;24.30;44.30;;;;;;6203969;23;20509;-61
2022/09/12 03:10:31;;;;;;;6.30;5.90;;;24.30;44.40;;;;;;6205710;23;20438;-60
2022/09/12 03:13:34;;;;;;;6.47;5.93;;;24.30;44.40;;;;;;6200439;23;20426;-60
2022/09/12 03:16:05;;;;;;;5.97;5.60;;;24.30;44.30;;;;;;6198962;23;20427;-61
2022/09/12 03:18:49;;;;;;;6.33;5.93;;;24.20;44.30;;;;;;6207429;23;20495;-61
2022/09/12 03:21:26;;;;;;;6.33;5.90;;;24.30;44.30;;;;;;6205534;23;20431;-60
2022/09/12 03:24:08;;;;;;;6.43;5.93;;;24.30;44.40;;;;;;6180835;23;20814;-60
2022/09/12 03:26:48;;;;;;;6.80;6.20;;;24.20;45.10;;;;;;6196140;23;20423;-64
2022/09/12 03:29:17;;;;;;;6.93;6.43;;;24.30;44.30;;;;;;6208038;23;20462;-60
2022/09/12 03:31:56;;;;;;;6.77;6.17;;;24.20;44.40;;;;;;6208871;23;20422;-61
2022/09/12 03:34:24;;;;;;;6.33;5.73;;;24.30;44.30;;;;;;6208449;23;20419;-62
2022/09/12 03:36:51;;;;;;;6.43;6.03;;;24.20;44.30;;;;;;6207588;23;20447;-61
2022/09/12 03:39:17;;;;;;;6.60;6.10;;;24.20;44.30;;;;;;6207085;23;20537;-60
2022/09/12 03:41:42;;;;;;;7.30;6.90;;;24.30;44.30;;;;;;6208894;23;20415;-60
2022/09/12 03:44:08;;;;;;;6.23;5.73;;;24.20;44.30;;;;;;6209735;23;20436;-60
2022/09/12 03:46:34;;;;;;;5.93;5.53;;;24.30;44.30;;;;;;6206522;23;20194;-61
2022/09/12 03:48:59;;;;;;;7.37;6.87;;;24.20;44.30;;;;;;6209912;23;20201;-61
2022/09/12 03:51:25;;;;;;;6.53;6.13;;;24.20;44.30;;;;;;6210885;23;20252;-64
2022/09/12 03:53:51;;;;;;;6.17;5.77;;;24.30;44.30;;;;;;6207265;23;20713;-61
2022/09/12 03:56:18;;;;;;;6.00;5.60;;;24.20;44.30;;;;;;6208797;23;20221;-60
2022/09/12 03:58:44;;;;;;;6.20;5.80;;;24.20;44.30;;;;;;6206495;23;20230;-61
2022/09/12 04:01:14;;;;;;;6.83;6.33;;;24.20;44.30;;;;;;6208718;23;20426;-60
2022/09/12 04:03:45;;;;;;;6.23;5.83;;;24.20;44.20;;;;;;6208365;23;20431;-60
2022/09/12 04:06:14;;;;;;;7.07;6.57;;;24.20;44.30;;;;;;6209350;23;20419;-60
2022/09/12 04:08:41;;;;;;;6.47;5.97;;;24.30;44.30;;;;;;6208288;23;20408;-60
2022/09/12 04:11:10;;;;;;;6.20;5.80;;;24.20;44.30;;;;;;6207531;23;20419;-60
2022/09/12 04:13:37;;;;;;;6.00;5.60;;;24.30;44.30;;;;;;6207618;23;20614;-60
2022/09/12 04:16:03;;;;;;;6.33;5.93;;;24.20;44.30;;;;;;6209611;23;20518;-60
2022/09/12 04:18:30;;;;;;;5.37;5.07;;;24.20;44.20;;;;;;6207663;23;20407;-63
2022/09/12 04:20:55;;;;;;;5.70;5.40;;;24.20;44.20;;;;;;6208435;23;20744;-62
2022/09/12 04:23:21;;;;;;;6.70;6.30;;;24.20;44.30;;;;;;6206756;23;20450;-63
2022/09/12 04:25:58;;;;;;;6.37;5.97;;;24.20;44.20;;;;;;6207022;23;20190;-62
2022/09/12 04:28:24;;;;;;;5.90;5.50;;;24.20;44.20;;;;;;6183246;23;20622;-63
2022/09/12 04:30:51;;;;;;;6.27;5.87;;;24.30;44.40;;;;;;6176423;23;20416;-62
2022/09/12 04:33:17;;;;;;;5.87;5.50;;;24.30;44.20;;;;;;6177063;23;20874;-58
2022/09/12 04:35:44;;;;;;;6.00;5.60;;;24.30;44.20;;;;;;6172610;23;20413;-60
2022/09/12 04:38:10;;;;;;;6.47;5.97;;;24.30;44.20;;;;;;6174608;23;20415;-60
2022/09/12 04:40:36;;;;;;;6.67;6.00;;;24.30;44.10;;;;;;6207233;23;20477;-60
2022/09/12 04:43:02;;;;;;;5.27;4.97;;;24.30;44.20;;;;;;6208568;23;20518;-60
2022/09/12 04:45:28;;;;;;;6.90;6.33;;;24.30;44.10;;;;;;6210403;23;20202;-61
2022/09/12 04:47:53;;;;;;;6.93;6.37;;;24.30;44.10;;;;;;6187365;23;20421;-62
2022/09/12 04:50:19;;;;;;;6.30;5.80;;;24.30;44.10;;;;;;6206094;23;20237;-60
2022/09/12 04:52:52;;;;;;;5.90;5.50;;;24.30;44.00;;;;;;6207049;23;20198;-62
2022/09/12 04:55:18;;;;;;;6.10;5.70;;;24.30;44.00;;;;;;6206343;23;20194;-61
2022/09/12 04:57:43;;;;;;;6.67;6.17;;;24.30;44.10;;;;;;6205197;23;20418;-60
2022/09/12 05:00:13;;;;;;;6.60;6.20;;;24.30;44.10;;;;;;6208308;23;20654;-60
2022/09/12 05:02:40;;;;;;;6.23;5.83;;;24.30;44.10;;;;;;6207090;23;20293;-60
2022/09/12 05:05:06;;;;;;;6.30;5.90;;;24.30;44.10;;;;;;6206367;23;20454;-60
2022/09/12 05:07:32;;;;;;;6.43;5.90;;;24.30;44.10;;;;;;6205800;23;20966;-62
2022/09/12 05:09:58;;;;;;;6.40;5.93;;;24.30;44.00;;;;;;6207136;23;20408;-60
2022/09/12 05:12:24;;;;;;;7.27;6.77;;;24.30;44.10;;;;;;6206746;23;20205;-62
2022/09/12 05:14:49;;;;;;;5.60;5.20;;;24.30;44.10;;;;;;6207268;23;20427;-62
2022/09/12 05:17:15;;;;;;;6.80;6.30;;;24.30;44.00;;;;;;6206694;23;20194;-60
2022/09/12 05:19:40;;;;;;;6.63;6.10;;;24.30;44.10;;;;;;6204102;23;20186;-60
2022/09/12 05:22:06;;;;;;;6.00;5.60;;;24.30;44.10;;;;;;6206857;23;20201;-60
2022/09/12 05:24:32;;;;;;;6.13;5.63;;;24.30;44.10;;;;;;6206503;23;20210;-60
2022/09/12 05:26:58;;;;;;;5.67;5.37;;;24.30;44.10;;;;;;6206164;23;20194;-63
2022/09/12 05:29:24;;;;;;;6.63;6.03;;;24.30;44.10;;;;;;6204720;23;20458;-63
2022/09/12 05:31:51;;;;;;;7.07;6.57;;;24.30;44.10;;;;;;6202886;23;20248;-63
2022/09/12 05:34:17;;;;;;;5.00;4.70;;;24.30;44.00;;;;;;6206003;23;20419;-62
2022/09/12 05:36:42;;;;;;;6.43;6.03;;;24.30;44.10;;;;;;6207480;23;20416;-61
2022/09/12 05:39:08;;;;;;;5.73;5.33;;;24.30;44.10;;;;;;6206638;23;20416;-60
2022/09/12 05:41:35;;;;;;;6.60;6.10;;;24.30;44.10;;;;;;6206599;23;20190;-65
2022/09/12 05:44:05;;;;;;;6.37;5.97;;;24.30;44.00;;;;;;6203088;23;20206;-62
2022/09/12 05:46:36;;;;;;;5.53;5.23;;;24.30;44.10;;;;;;6204449;23;20423;-61
2022/09/12 05:49:07;;;;;;;5.70;5.40;;;24.30;44.00;;;;;;6202920;23;20418;-61
2022/09/12 05:51:36;;;;;;;5.90;5.60;;;24.30;44.10;;;;;;6204937;23;20416;-62
2022/09/12 05:54:04;;;;;;;5.63;5.27;;;24.30;44.10;;;;;;6206172;23;20419;-61
2022/09/12 05:56:32;;;;;;;5.60;5.30;;;24.30;44.10;;;;;;6206734;23;20470;-63
2022/09/12 05:59:04;;;;;;;5.17;4.77;;;24.30;44.10;;;;;;6178777;23;20486;-64
2022/09/12 06:01:32;;;;;;;5.17;4.87;;;24.30;44.10;;;;;;6173666;23;20424;-62
2022/09/12 06:03:59;;;;;;;5.40;5.00;;;24.30;44.00;;;;;;6179390;23;20469;-61
2022/09/12 06:06:26;;;;;;;5.17;4.77;;;24.30;44.10;;;;;;6182289;22;20444;-61
2022/09/12 06:08:56;;;;;;;6.27;5.67;;;24.30;44.10;;;;;;6174944;23;20417;-60
2022/09/12 06:11:24;;;;;;;5.50;4.77;;;24.30;44.00;;;;;;6186538;23;20423;-60
2022/09/12 06:13:50;;;;;;;5.43;5.07;;;24.30;44.10;;;;;;6205165;23;21211;-60
2022/09/12 06:16:20;;;;;;;5.30;4.90;;;24.30;44.00;;;;;;6205142;23;20472;-64
2022/09/12 06:18:48;;;;;;;6.00;5.60;;;24.30;44.00;;;;;;6184703;23;20225;-60
2022/09/12 06:21:15;;;;;;;6.07;5.67;;;24.30;44.00;;;;;;6176427;23;20413;-60
2022/09/12 06:23:41;;;;;;;5.27;4.90;;;24.30;44.10;;;;;;6177343;23;20908;-61
2022/09/12 06:26:09;;;;;;;5.70;5.30;;;24.30;44.00;;;;;;6182384;23;20423;-60
2022/09/12 06:28:36;;;;;;;6.20;5.80;;;24.30;44.00;;;;;;6203154;23;20941;-63
2022/09/12 06:31:14;;;;;;;5.43;5.13;;;24.30;44.00;;;;;;6178334;23;20416;-64
2022/09/12 06:33:44;;;;;;;6.40;5.90;;;24.30;44.00;;;;;;6185083;23;20506;-61
2022/09/12 06:36:15;;;;;;;5.47;5.07;;;24.30;44.00;;;;;;6194097;23;20483;-60
2022/09/12 06:38:41;;;;;;;5.37;5.07;;;24.30;44.10;;;;;;6207435;23;20770;-60
2022/09/12 06:41:10;;;;;;;6.13;5.73;;;24.30;44.10;;;;;;6200287;23;20428;-60
2022/09/12 06:43:36;;;;;;;5.60;5.20;;;24.30;44.00;;;;;;6206942;23;20423;-62
2022/09/12 06:46:02;;;;;;;5.40;5.10;;;24.30;44.10;;;;;;6205071;23;20446;-60
2022/09/12 06:48:28;;;;;;;5.20;4.80;;;24.30;44.00;;;;;;6209418;23;20625;-62
2022/09/12 06:51:02;;;;;;;5.80;5.50;;;24.30;44.00;;;;;;6205940;23;20412;-61
2022/09/12 06:53:29;;;;;;;5.87;5.47;;;24.30;44.00;;;;;;6174427;23;20564;-60
2022/09/12 06:56:06;;;;;;;5.00;4.70;;;24.30;44.10;;;;;;6187371;23;20886;-62
2022/09/12 06:58:33;;;;;;;5.80;5.40;;;24.30;44.00;;;;;;6205099;23;20439;-61
2022/09/12 07:01:02;;;;;;;5.60;5.20;;;24.30;44.10;;;;;;6206556;23;21285;-63
2022/09/12 07:03:28;;;;;;;5.20;4.90;;;24.30;44.00;;;;;;6198198;23;20423;-61
2022/09/12 07:05:54;;;;;;;5.17;4.80;;;24.30;44.90;;;;;;6181761;23;20863;-61
2022/09/12 07:08:19;;;;;;;5.33;5.03;;;24.30;44.10;;;;;;6176477;23;20409;-61
2022/09/12 07:10:45;;;;;;;5.00;4.80;;;24.30;44.10;;;;;;6174971;23;20194;-60
2022/09/12 07:13:11;;;;;;;5.73;5.33;;;24.30;44.10;;;;;;6176245;23;20290;-61
2022/09/12 07:15:36;;;;;;;5.43;5.13;;;24.30;44.00;;;;;;6175174;23;20214;-62
2022/09/12 07:18:02;;;;;;;4.77;4.43;;;24.30;44.00;;;;;;6177661;23;20269;-61
2022/09/12 07:20:28;;;;;;;5.30;5.00;;;24.30;44.00;;;;;;6176331;23;20558;-61
2022/09/12 07:22:54;;;;;;;4.93;4.73;;;24.30;44.10;;;;;;6176567;23;20420;-61
2022/09/12 07:25:19;;;;;;;5.80;5.40;;;24.30;44.10;;;;;;6175056;23;20210;-62
2022/09/12 07:27:45;;;;;;;6.23;5.50;;;24.30;44.10;;;;;;6176101;23;20569;-61
2022/09/12 07:30:11;;;;;;;4.80;4.43;;;24.30;44.10;;;;;;6175269;23;20747;-61
2022/09/12 07:32:36;;;;;;;5.20;4.90;;;24.30;44.10;;;;;;6176461;23;20191;-61
2022/09/12 07:35:02;;;;;;;5.27;4.93;;;24.30;44.00;;;;;;6176232;23;20524;-61
2022/09/12 07:37:30;;;;;;;4.70;4.43;;;24.30;44.00;;;;;;6176506;23;20202;-61
2022/09/12 07:39:56;;;;;;;4.83;4.53;;;24.30;44.00;;;;;;6176371;23;20199;-62
2022/09/12 07:42:21;;;;;;;4.70;4.40;;;24.30;44.00;;;;;;6176125;23;20419;-60
2022/09/12 07:44:47;;;;;;;4.93;4.70;;;24.30;44.00;;;;;;6176344;23;20229;-61
2022/09/12 07:47:12;;;;;;;4.43;4.23;;;24.30;44.00;;;;;;6174780;23;20555;-61
2022/09/12 07:49:38;;;;;;;4.40;4.20;;;24.30;44.00;;;;;;6176708;23;20217;-61
2022/09/12 07:52:04;;;;;;;5.03;4.73;;;24.30;44.00;;;;;;6175118;23;20550;-60
2022/09/12 07:54:32;;;;;;;4.63;4.33;;;24.30;44.10;;;;;;6175808;23;20529;-62
2022/09/12 07:56:58;;;;;;;4.27;4.07;;;24.30;44.00;;;;;;6178322;23;20194;-63
2022/09/12 07:59:23;;;;;;;4.97;4.67;;;24.30;44.10;;;;;;6174943;23;20463;-60
2022/09/12 08:01:49;;;;;;;5.10;4.80;;;24.40;44.10;;;;;;6175656;23;20416;-61
2022/09/12 08:04:14;;;;;;;4.60;4.40;;;24.30;44.00;;;;;;6176277;23;20207;-61
2022/09/12 08:06:40;;;;;;;4.83;4.53;;;24.30;44.10;;;;;;6176106;23;20246;-61
2022/09/12 08:09:06;;;;;;;4.83;4.53;;;24.30;44.00;;;;;;6175116;23;20202;-60
2022/09/12 08:11:32;;;;;;;5.37;4.97;;;24.30;44.10;;;;;;6176496;23;20229;-62
2022/09/12 08:13:58;;;;;;;4.30;4.00;;;24.30;44.10;;;;;;6179914;23;20417;-60
2022/09/12 08:16:26;;;;;;;4.23;3.93;;;24.30;44.10;;;;;;6206330;23;20407;-60
2022/09/12 08:18:53;;;;;;;4.57;4.37;;;24.30;44.10;;;;;;6208092;23;20426;-60
2022/09/12 08:21:21;;;;;;;4.37;4.17;;;24.30;44.10;;;;;;6207183;23;20420;-60
2022/09/12 08:23:52;;;;;;;4.50;4.20;;;24.30;44.00;;;;;;6206860;23;20511;-60
2022/09/12 08:26:18;;;;;;;4.97;4.67;;;24.30;44.10;;;;;;6206198;23;21114;-63
2022/09/12 08:28:44;;;;;;;4.67;4.40;;;24.40;44.20;;;;;;6207136;23;20427;-61
2022/09/12 08:31:12;;;;;;;4.77;4.47;;;24.30;44.00;;;;;;6207326;23;21021;-61
2022/09/12 08:33:38;;;;;;;4.80;4.50;;;24.30;44.10;;;;;;6207996;23;20506;-60
2022/09/12 08:36:19;;;;;;;5.03;4.63;;;24.30;44.10;;;;;;6208236;23;21302;-61
2022/09/12 08:38:47;;;;;;;4.50;4.30;;;24.40;44.10;;;;;;6206095;23;20723;-62
2022/09/12 08:41:20;;;;;;;4.70;4.40;;;24.30;44.10;;;;;;6206713;23;20411;-60
2022/09/12 08:44:17;;;;;;;4.27;4.07;;;24.30;44.00;;;;;;6206257;23;20432;-61
2022/09/12 08:46:54;;;;;;;5.20;4.90;;;24.30;44.00;;;;;;6164923;23;20423;-60
2022/09/12 08:49:28;;;;;;;5.20;4.90;;;24.30;44.10;;;;;;6200752;23;20521;-64
2022/09/12 08:51:56;;;;;;;4.83;4.53;;;24.30;44.10;;;;;;6206937;23;20733;-60
2022/09/12 08:54:28;;;;;;;5.23;4.93;;;24.30;44.10;;;;;;6183356;23;20417;-61
2022/09/12 08:57:05;;;;;;;4.27;4.07;;;24.30;44.10;;;;;;6205993;23;20411;-60
2022/09/12 08:59:37;;;;;;;5.10;4.80;;;24.30;44.00;;;;;;6204964;23;20851;-61
2022/09/12 09:02:16;;;;;;;4.20;3.90;;;24.30;44.10;;;;;;6206151;23;20821;-61
2022/09/12 09:05:19;;;;;;;4.90;4.60;;;24.30;44.10;;;;;;6207584;23;20424;-61
2022/09/12 09:08:17;;;;;;;4.57;4.27;;;24.30;44.10;;;;;;6190703;23;20712;-64
2022/09/12 09:11:10;;;;;;;4.73;4.43;;;24.30;44.10;;;;;;6199495;23;20686;-62
2022/09/12 09:16:43;;;;;;;5.07;4.80;;;24.30;44.10;;;;;;6206561;23;20462;-61
2022/09/12 09:19:19;;;;;;;4.33;4.13;;;24.30;44.10;;;;;;6186105;23;20424;-61
2022/09/12 09:21:54;;;;;;;4.37;4.17;;;24.30;44.10;;;;;;6197021;23;20473;-65
2022/09/12 09:24:26;;;;;;;4.60;4.33;;;24.30;44.10;;;;;;6175537;22;20740;-62
2022/09/12 09:27:08;;;;;;;4.83;4.57;;;24.30;44.10;;;;;;6175123;23;20727;-61
2022/09/12 09:29:43;;;;;;;5.00;4.57;;;24.30;44.10;;;;;;6175449;23;20772;-61
2022/09/12 09:32:17;;;;;;;5.20;4.90;;;24.30;44.10;;;;;;6176120;23;20814;-61
2022/09/12 09:34:43;;;;;;;4.10;3.90;;;24.30;44.10;;;;;;6175858;23;20721;-61
2022/09/12 09:37:17;;;;;;;4.80;4.50;;;24.30;44.10;;;;;;6176278;23;20413;-63
2022/09/12 09:40:07;;;;;;;4.83;4.53;;;24.30;44.10;;;;;;6177442;23;20785;-61
2022/09/12 09:42:35;;;;;;;4.57;4.37;;;24.30;44.10;;;;;;6188019;23;20424;-60
2022/09/12 09:45:10;;;;;;;4.67;4.30;;;24.30;44.20;;;;;;6207825;23;20947;-61
2022/09/12 09:47:35;;;;;;;4.90;4.50;;;24.30;44.10;;;;;;6205205;23;20514;-62
2022/09/12 09:50:01;;;;;;;4.90;4.60;;;24.30;44.10;;;;;;6194021;23;20401;-64
2022/09/12 09:52:29;;;;;;;4.33;4.10;;;24.30;44.10;;;;;;6194279;23;20329;-60
2022/09/12 09:55:00;;;;;;;4.07;3.87;;;24.30;44.10;;;;;;6205411;23;20348;-62
2022/09/12 09:57:35;;;;;;;5.23;4.90;;;24.30;44.20;;;;;;6205659;23;20466;-61
2022/09/12 10:00:30;;;;;;;4.60;4.40;;;24.30;44.20;;;;;;6205120;23;20415;-61
2022/09/12 10:03:08;;;;;;;5.03;4.57;;;24.30;44.10;;;;;;6205583;23;20420;-60
2022/09/12 10:05:59;;;;;;;4.73;4.43;;;24.30;44.20;;;;;;6205099;23;20415;-61
2022/09/12 10:08:26;;;;;;;4.97;4.67;;;24.30;44.20;;;;;;6187514;23;20470;-61
2022/09/12 10:11:04;;;;;;;4.33;4.13;;;24.30;44.20;;;;;;6206245;23;20439;-61
2022/09/12 10:13:36;;;;;;;4.93;4.67;;;24.30;44.20;;;;;;6186779;23;20450;-64
2022/09/12 10:16:05;;;;;;;5.13;4.73;;;24.30;44.20;;;;;;6175897;23;20447;-60
2022/09/12 10:18:39;;;;;;;4.27;4.07;;;24.30;44.20;;;;;;6190811;23;20426;-61
2022/09/12 10:21:26;;;;;;;4.90;4.60;;;24.30;44.20;;;;;;6206803;23;20426;-61
2022/09/12 10:24:18;;;;;;;4.90;4.70;;;24.30;44.20;;;;;;6203388;23;20910;-67
2022/09/12 10:27:16;;;;;;;4.87;4.60;;;24.30;44.20;;;;;;6113903;23;20420;-61
2022/09/12 10:30:04;;;;;;;4.17;3.97;;;24.30;44.20;;;;;;6184016;23;20412;-61
2022/09/12 10:32:44;;;;;;;4.57;4.27;;;24.30;44.20;;;;;;6206004;23;20411;-62
2022/09/12 10:35:19;;;;;;;4.40;4.10;;;24.30;44.20;;;;;;6180276;23;20423;-61
2022/09/12 10:38:03;;;;;;;5.10;4.80;;;24.30;44.20;;;;;;6203727;23;20732;-61
2022/09/12 10:40:41;;;;;;;5.20;4.90;;;24.30;44.20;;;;;;6199987;23;20420;-62
2022/09/12 10:43:43;;;;;;;4.60;4.40;;;24.30;44.20;;;;;;6204362;23;20886;-61
2022/09/12 10:46:15;;;;;;;4.80;4.50;;;24.30;44.20;;;;;;6082351;23;20454;-61
2022/09/12 10:48:41;;;;;;;3.90;3.70;;;24.30;44.20;;;;;;6183522;23;20454;-61
2022/09/12 10:51:25;;;;;;;5.00;4.70;;;24.30;44.20;;;;;;6206503;23;20423;-61
2022/09/12 10:53:55;;;;;;;4.43;4.13;;;24.30;44.20;;;;;;6204446;23;20505;-61
2022/09/12 10:56:24;;;;;;;4.93;4.63;;;24.30;44.20;;;;;;6205692;23;20505;-61
2022/09/12 10:59:27;;;;;;;4.30;4.10;;;24.30;44.20;;;;;;6205867;23;20427;-64
2022/09/12 11:02:04;;;;;;;4.80;4.60;;;24.30;44.10;;;;;;6204795;23;20481;-62
2022/09/12 11:04:32;;;;;;;4.47;4.27;;;24.30;44.20;;;;;;6185080;23;20420;-66
2022/09/12 11:07:08;;;;;;;4.67;4.47;;;24.30;44.20;;;;;;6203401;23;20446;-62
2022/09/12 11:09:43;;;;;;;4.37;4.17;;;24.30;44.20;;;;;;6180156;23;20420;-61
2022/09/12 11:12:32;;;;;;;4.47;4.17;;;24.30;44.20;;;;;;6207298;23;20494;-63
2022/09/12 11:15:35;;;;;;;4.63;4.43;;;24.30;44.20;;;;;;6186356;23;20514;-61
2022/09/12 11:18:29;;;;;;;4.23;4.00;;;24.30;44.20;;;;;;6159891;22;20760;-62
2022/09/12 11:21:09;;;;;;;3.83;3.63;;;24.30;44.20;;;;;;6175999;23;20417;-61
2022/09/12 11:24:02;;;;;;;4.00;3.80;;;24.30;44.10;;;;;;6185967;23;20428;-62
2022/09/12 11:26:59;;;;;;;4.77;4.37;;;24.30;44.10;;;;;;6205393;23;20466;-61
2022/09/12 11:29:47;;;;;;;4.27;4.07;;;24.30;44.10;;;;;;6199203;23;20428;-62
2022/09/12 11:32:40;;;;;;;3.60;3.40;;;24.30;44.10;;;;;;6188782;23;20420;-61
2022/09/12 11:35:24;;;;;;;4.07;3.87;;;24.30;44.10;;;;;;6176816;23;20420;-62
2022/09/12 11:38:07;;;;;;;4.80;4.50;;;24.30;44.10;;;;;;6172581;23;20420;-64
2022/09/12 11:40:53;;;;;;;3.90;3.70;;;24.30;44.00;;;;;;6182508;23;20792;-62
2022/09/12 11:43:45;;;;;;;4.70;4.40;;;24.30;44.10;;;;;;6191570;23;20463;-64
2022/09/12 11:46:35;;;;;;;3.60;3.40;;;24.30;44.00;;;;;;6197778;23;20442;-60
2022/09/12 11:49:11;;;;;;;4.60;4.40;;;24.30;44.10;;;;;;6175014;23;20419;-62
2022/09/12 11:51:55;;;;;;;4.53;4.23;;;24.30;44.10;;;;;;6176846;23;20420;-60
2022/09/12 11:54:37;;;;;;;4.33;4.10;;;24.30;44.10;;;;;;6197975;23;20867;-60
2022/09/12 11:57:11;;;;;;;4.37;4.07;;;24.30;44.10;;;;;;6175870;23;20424;-60
2022/09/12 11:59:56;;;;;;;4.13;3.83;;;24.30;44.10;;;;;;6176427;23;21194;-61
2022/09/12 12:02:30;;;;;;;3.80;3.60;;;24.30;44.10;;;;;;6197983;23;20743;-60
2022/09/12 12:05:04;;;;;;;4.20;3.97;;;24.30;44.10;;;;;;6199745;23;20428;-60
2022/09/12 12:07:41;;;;;;;4.13;3.90;;;24.30;44.10;;;;;;6193186;23;20992;-61
2022/09/12 12:10:40;;;;;;;3.97;3.77;;;24.30;44.10;;;;;;6175942;23;20416;-61
2022/09/12 12:13:17;;;;;;;3.77;3.57;;;24.30;44.10;;;;;;6190300;23;20416;-62
2022/09/12 12:16:12;;;;;;;3.63;3.43;;;24.30;44.10;;;;;;6199789;23;20821;-62
2022/09/12 12:18:39;;;;;;;4.40;4.20;;;24.30;44.10;;;;;;6172795;23;20416;-63
2022/09/12 12:21:50;;;;;;;3.60;3.40;;;24.30;44.10;;;;;;6175929;23;20416;-61
2022/09/12 12:24:22;;;;;;;4.00;3.80;;;24.30;44.10;;;;;;6190173;23;20482;-60
2022/09/12 12:27:00;;;;;;;3.93;3.70;;;24.30;44.20;;;;;;6195246;23;20427;-61
2022/09/12 12:29:39;;;;;;;4.33;4.13;;;24.30;44.10;;;;;;6177234;23;20479;-62
2022/09/12 12:32:04;;;;;;;3.70;3.50;;;24.30;44.10;;;;;;6201079;23;21075;-61
2022/09/12 12:34:38;;;;;;;3.50;3.30;;;24.30;44.10;;;;;;6198896;23;20415;-64
2022/09/12 12:37:19;;;;;;;3.70;3.50;;;24.30;44.10;;;;;;6179902;22;20268;-62
2022/09/12 12:39:52;;;;;;;3.90;3.70;;;24.40;44.10;;;;;;6175173;23;20486;-61
2022/09/12 12:42:43;;;;;;;3.70;3.40;;;24.30;44.10;;;;;;6174954;23;20424;-63
2022/09/12 12:45:29;;;;;;;3.73;3.53;;;24.40;44.10;;;;;;6185142;23;20478;-62
2022/09/12 12:48:17;;;;;;;4.20;3.90;;;24.30;44.00;;;;;;6201354;23;20524;-62
2022/09/12 12:50:42;;;;;;;3.70;3.50;;;24.30;44.80;;;;;;6174989;23;20412;-61
2022/09/12 12:53:24;;;;;;;4.00;3.80;;;24.30;44.10;;;;;;6178176;23;20471;-62
2022/09/12 12:55:53;;;;;;;3.60;3.40;;;24.40;44.10;;;;;;6178772;23;20732;-66
2022/09/12 12:58:30;;;;;;;4.20;4.00;;;24.40;44.10;;;;;;6205445;23;20420;-64
2022/09/12 13:01:15;;;;;;;3.63;3.43;;;24.40;44.10;;;;;;6204976;23;20952;-61
2022/09/12 13:03:58;;;;;;;4.07;3.87;;;24.40;44.10;;;;;;6199947;23;20427;-61
2022/09/12 13:06:36;;;;;;;3.77;3.57;;;24.40;44.10;;;;;;6207328;23;20415;-60
2022/09/12 13:09:26;;;;;;;3.60;3.40;;;24.40;44.20;;;;;;6180269;23;20885;-62
2022/09/12 13:12:00;;;;;;;3.80;3.60;;;24.40;44.10;;;;;;6176797;23;20463;-60
2022/09/12 13:14:47;;;;;;;3.80;3.60;;;24.30;44.00;;;;;;6180408;23;20750;-61
2022/09/12 13:17:30;;;;;;;4.00;3.70;;;24.30;44.00;;;;;;6193165;23;20505;-63
2022/09/12 13:20:22;;;;;;;3.60;3.40;;;24.40;44.20;;;;;;6199765;23;20411;-61
2022/09/12 13:22:50;;;;;;;3.60;3.40;;;24.30;44.00;;;;;;6195730;23;20424;-61